sensor_id;sensor_type;location;lat;lon;timestamp;pressure;altitude;pressure_sealevel;temperature;humidity
46199;BME280;31928;52.104;10.030;2024-03-02T00:01:40;99382.84;;;13.74;48.63
46199;BME280;31928;52.104;10.030;2024-03-02T00:04:07;99383.09;;;13.73;48.69
46199;BME280;31928;52.104;10.030;2024-03-02T00:06:34;99379.03;;;13.70;48.81
46199;BME280;31928;52.104;10.030;2024-03-02T00:09:01;99377.97;;;13.71;48.30
46199;BME280;31928;52.104;10.030;2024-03-02T00:11:27;99375.78;;;13.68;48.82
46199;BME280;31928;52.104;10.030;2024-03-02T00:13:54;99381.75;;;13.70;48.47
46199;BME280;31928;52.104;10.030;2024-03-02T00:16:21;99381.16;;;13.68;48.68
46199;BME280;31928;52.104;10.030;2024-03-02T00:18:47;99370.38;;;13.68;48.51
46199;BME280;31928;52.104;10.030;2024-03-02T00:21:14;99377.41;;;13.69;48.60
46199;BME280;31928;52.104;10.030;2024-03-02T00:23:42;99375.56;;;13.70;48.68
46199;BME280;31928;52.104;10.030;2024-03-02T00:26:09;99364.50;;;13.71;48.36
46199;BME280;31928;52.104;10.030;2024-03-02T00:28:37;99366.16;;;13.72;48.14
46199;BME280;31928;52.104;10.030;2024-03-02T00:31:06;99366.16;;;13.72;48.19
46199;BME280;31928;52.104;10.030;2024-03-02T00:33:43;99363.19;;;13.74;48.54
46199;BME280;31928;52.104;10.030;2024-03-02T00:36:11;99365.63;;;13.75;48.18
46199;BME280;31928;52.104;10.030;2024-03-02T00:38:45;99362.34;;;13.73;48.62
46199;BME280;31928;52.104;10.030;2024-03-02T00:41:17;99356.97;;;13.73;48.72
46199;BME280;31928;52.104;10.030;2024-03-02T00:43:47;99355.38;;;13.72;48.32
46199;BME280;31928;52.104;10.030;2024-03-02T00:46:17;99366.16;;;13.72;48.88
46199;BME280;31928;52.104;10.030;2024-03-02T00:48:54;99354.28;;;13.73;48.69
46199;BME280;31928;52.104;10.030;2024-03-02T00:51:23;99357.81;;;13.74;48.34
46199;BME280;31928;52.104;10.030;2024-03-02T00:53:50;99360.19;;;13.70;48.56
46199;BME280;31928;52.104;10.030;2024-03-02T00:56:17;99371.53;;;13.72;48.32
46199;BME280;31928;52.104;10.030;2024-03-02T00:58:44;99371.53;;;13.72;48.20
46199;BME280;31928;52.104;10.030;2024-03-02T01:01:10;99367.75;;;13.73;48.21
46199;BME280;31928;52.104;10.030;2024-03-02T01:03:37;99366.94;;;13.73;48.73
46199;BME280;31928;52.104;10.030;2024-03-02T01:06:04;99368.56;;;13.74;48.35
46199;BME280;31928;52.104;10.030;2024-03-02T01:08:31;99373.97;;;13.74;48.61
46199;BME280;31928;52.104;10.030;2024-03-02T01:10:57;99370.19;;;13.75;48.48
46199;BME280;31928;52.104;10.030;2024-03-02T01:13:24;99375.56;;;13.75;48.18
46199;BME280;31928;52.104;10.030;2024-03-02T01:15:51;99376.66;;;13.74;48.77
46199;BME280;31928;52.104;10.030;2024-03-02T01:18:17;99376.41;;;13.75;48.26
46199;BME280;31928;52.104;10.030;2024-03-02T01:20:44;99375.56;;;13.75;48.35
46199;BME280;31928;52.104;10.030;2024-03-02T01:23:11;99365.63;;;13.75;48.26
46199;BME280;31928;52.104;10.030;2024-03-02T01:25:37;99381.78;;;13.75;48.20
46199;BME280;31928;52.104;10.030;2024-03-02T01:28:04;99386.09;;;13.76;48.42
46199;BME280;31928;52.104;10.030;2024-03-02T01:30:31;99388.53;;;13.78;48.21
46199;BME280;31928;52.104;10.030;2024-03-02T01:32:57;99388.28;;;13.79;48.12
46199;BME280;31928;52.104;10.030;2024-03-02T01:35:26;99379.13;;;13.80;48.32
46199;BME280;31928;52.104;10.030;2024-03-02T01:37:53;99384.53;;;13.80;48.44
46199;BME280;31928;52.104;10.030;2024-03-02T01:40:19;99382.38;;;13.82;48.48
46199;BME280;31928;52.104;10.030;2024-03-02T01:42:46;99387.25;;;13.85;48.29
46199;BME280;31928;52.104;10.030;2024-03-02T01:45:13;99374.84;;;13.84;48.26
46199;BME280;31928;52.104;10.030;2024-03-02T01:47:40;99383.47;;;13.86;48.15
46199;BME280;31928;52.104;10.030;2024-03-02T01:50:07;99375.97;;;13.88;48.17
46199;BME280;31928;52.104;10.030;2024-03-02T01:52:33;99374.34;;;13.87;48.39
46199;BME280;31928;52.104;10.030;2024-03-02T01:55:00;99372.19;;;13.89;48.00
46199;BME280;31928;52.104;10.030;2024-03-02T01:57:26;99370.03;;;13.91;48.23
46199;BME280;31928;52.104;10.030;2024-03-02T01:59:53;99380.81;;;13.91;47.99
46199;BME280;31928;52.104;10.030;2024-03-02T02:02:20;99370.88;;;13.91;48.37
46199;BME280;31928;52.104;10.030;2024-03-02T02:04:46;99367.91;;;13.93;48.15
46199;BME280;31928;52.104;10.030;2024-03-02T02:07:13;99367.09;;;13.92;48.07
46199;BME280;31928;52.104;10.030;2024-03-02T02:09:43;99367.91;;;13.93;48.34
46199;BME280;31928;52.104;10.030;2024-03-02T02:12:10;99366.03;;;13.93;48.27
46199;BME280;31928;52.104;10.030;2024-03-02T02:14:37;99364.16;;;13.94;48.19
46199;BME280;31928;52.104;10.030;2024-03-02T02:17:06;99359.84;;;13.93;48.08
46199;BME280;31928;52.104;10.030;2024-03-02T02:19:32;99351.75;;;13.93;48.27
46199;BME280;31928;52.104;10.030;2024-03-02T02:21:59;99348.00;;;13.94;47.91
46199;BME280;31928;52.104;10.030;2024-03-02T02:24:26;99351.75;;;13.93;48.13
46199;BME280;31928;52.104;10.030;2024-03-02T02:26:52;99353.88;;;13.91;48.01
46199;BME280;31928;52.104;10.030;2024-03-02T02:29:19;99339.88;;;13.89;47.97
46199;BME280;31928;52.104;10.030;2024-03-02T02:31:45;99339.88;;;13.89;48.22
46199;BME280;31928;52.104;10.030;2024-03-02T02:34:12;99329.59;;;13.86;48.26
46199;BME280;31928;52.104;10.030;2024-03-02T02:36:40;99338.78;;;13.85;47.85
46199;BME280;31928;52.104;10.030;2024-03-02T02:39:07;99343.31;;;13.84;47.85
46199;BME280;31928;52.104;10.030;2024-03-02T02:41:37;99337.66;;;13.81;48.10
46199;BME280;31928;52.104;10.030;2024-03-02T02:44:04;99339.78;;;13.79;48.29
46199;BME280;31928;52.104;10.030;2024-03-02T02:46:30;99339.78;;;13.79;48.01
46199;BME280;31928;52.104;10.030;2024-03-02T02:48:57;99341.91;;;13.77;47.96
46199;BME280;31928;52.104;10.030;2024-03-02T02:51:24;99352.69;;;13.77;48.27
46199;BME280;31928;52.104;10.030;2024-03-02T02:53:52;99337.06;;;13.74;47.93
46199;BME280;31928;52.104;10.030;2024-03-02T02:56:18;99331.66;;;13.74;48.10
46199;BME280;31928;52.104;10.030;2024-03-02T02:58:45;99328.97;;;13.74;47.94
46199;BME280;31928;52.104;10.030;2024-03-02T03:01:11;99321.97;;;13.73;48.29
46199;BME280;31928;52.104;10.030;2024-03-02T03:03:38;99320.91;;;13.74;48.31
46199;BME280;31928;52.104;10.030;2024-03-02T03:06:04;99325.47;;;13.74;48.08
46199;BME280;31928;52.104;10.030;2024-03-02T03:08:31;99313.06;;;13.73;48.21
46199;BME280;31928;52.104;10.030;2024-03-02T03:10:58;99318.72;;;13.71;48.34
46199;BME280;31928;52.104;10.030;2024-03-02T03:13:24;99306.88;;;13.72;48.30
46199;BME280;31928;52.104;10.030;2024-03-02T03:15:51;99316.03;;;13.71;48.17
46199;BME280;31928;52.104;10.030;2024-03-02T03:18:17;99313.34;;;13.71;47.93
46199;BME280;31928;52.104;10.030;2024-03-02T03:20:44;99315.47;;;13.69;47.97
46199;BME280;31928;52.104;10.030;2024-03-02T03:23:10;99312.78;;;13.69;48.08
46199;BME280;31928;52.104;10.030;2024-03-02T03:25:41;99319.22;;;13.68;48.27
46199;BME280;31928;52.104;10.030;2024-03-02T03:28:08;99313.28;;;13.66;48.04
46199;BME280;31928;52.104;10.030;2024-03-02T03:30:37;99321.63;;;13.65;48.07
46199;BME280;31928;52.104;10.030;2024-03-02T03:33:04;99327.81;;;13.65;48.00
46199;BME280;31928;52.104;10.030;2024-03-02T03:35:34;99331.59;;;13.64;48.11
46199;BME280;31928;52.104;10.030;2024-03-02T03:38:01;99328.88;;;13.64;48.37
46199;BME280;31928;52.104;10.030;2024-03-02T03:40:27;99321.63;;;13.65;48.32
46199;BME280;31928;52.104;10.030;2024-03-02T03:42:54;99322.44;;;13.65;48.11
46199;BME280;31928;52.104;10.030;2024-03-02T03:45:22;99323.50;;;13.64;48.18
46199;BME280;31928;52.104;10.030;2024-03-02T03:47:49;99317.31;;;13.64;48.17
46199;BME280;31928;52.104;10.030;2024-03-02T03:50:15;99312.19;;;13.62;48.36
46199;BME280;31928;52.104;10.030;2024-03-02T03:52:42;99315.94;;;13.61;48.30
46199;BME280;31928;52.104;10.030;2024-03-02T03:55:10;99302.75;;;13.60;48.07
46199;BME280;31928;52.104;10.030;2024-03-02T03:57:36;99300.31;;;13.58;48.12
46199;BME280;31928;52.104;10.030;2024-03-02T04:00:03;99301.38;;;13.57;48.05
46199;BME280;31928;52.104;10.030;2024-03-02T12:09:14;99454.75;;;17.12;45.13
46199;BME280;31928;52.104;10.030;2024-03-02T12:11:41;99462.06;;;17.16;45.03
46199;BME280;31928;52.104;10.030;2024-03-02T12:14:11;99467.47;;;17.21;44.67
46199;BME280;31928;52.104;10.030;2024-03-02T12:16:43;99452.31;;;17.25;44.92
46199;BME280;31928;52.104;10.030;2024-03-02T12:19:09;99445.22;;;17.29;44.45
46199;BME280;31928;52.104;10.030;2024-03-02T12:21:36;99446.59;;;17.32;44.51
46199;BME280;31928;52.104;10.030;2024-03-02T12:24:04;99443.03;;;17.36;44.87
46199;BME280;31928;52.104;10.030;2024-03-02T12:26:30;99437.06;;;17.39;44.04
46199;BME280;31928;52.104;10.030;2024-03-02T12:28:57;99436.22;;;17.44;43.83
46199;BME280;31928;52.104;10.030;2024-03-02T12:31:24;99437.00;;;17.49;44.41
46199;BME280;31928;52.104;10.030;2024-03-02T12:33:50;99430.47;;;17.55;44.36
46199;BME280;31928;52.104;10.030;2024-03-02T12:36:17;99425.00;;;17.60;44.17
46199;BME280;31928;52.104;10.030;2024-03-02T12:38:44;99423.63;;;17.67;44.79
46199;BME280;31928;52.104;10.030;2024-03-02T12:41:10;99423.59;;;17.72;43.45
46199;BME280;31928;52.104;10.030;2024-03-02T12:43:38;99437.34;;;17.81;44.23
46199;BME280;31928;52.104;10.030;2024-03-02T12:46:04;99424.28;;;17.88;44.49
46199;BME280;31928;52.104;10.030;2024-03-02T12:48:31;99419.88;;;17.97;44.71
46199;BME280;31928;52.104;10.030;2024-03-02T12:50:58;99422.50;;;18.06;43.74
46199;BME280;31928;52.104;10.030;2024-03-02T12:53:25;99421.06;;;18.19;44.59
46199;BME280;31928;52.104;10.030;2024-03-02T12:55:51;99423.41;;;18.30;44.07
46199;BME280;31928;52.104;10.030;2024-03-02T12:58:19;99415.41;;;18.44;44.27
46199;BME280;31928;52.104;10.030;2024-03-02T13:00:45;99413.97;;;18.51;40.62
46199;BME280;31928;52.104;10.030;2024-03-02T13:03:12;99413.88;;;18.61;41.91
46199;BME280;31928;52.104;10.030;2024-03-02T13:05:41;99408.34;;;18.71;42.34
46199;BME280;31928;52.104;10.030;2024-03-02T13:08:08;99403.38;;;18.78;43.23
46199;BME280;31928;52.104;10.030;2024-03-02T13:10:34;99398.38;;;18.85;43.06
46199;BME280;31928;52.104;10.030;2024-03-02T13:13:01;99411.63;;;18.91;42.75
46199;BME280;31928;52.104;10.030;2024-03-02T13:15:28;99404.19;;;19.02;43.20
46199;BME280;31928;52.104;10.030;2024-03-02T13:17:58;99397.84;;;19.11;42.24
46199;BME280;31928;52.104;10.030;2024-03-02T13:20:29;99395.25;;;19.20;42.15
46199;BME280;31928;52.104;10.030;2024-03-02T13:22:56;99398.69;;;19.30;42.45
46199;BME280;31928;52.104;10.030;2024-03-02T13:25:22;99388.75;;;19.39;42.77
46199;BME280;31928;52.104;10.030;2024-03-02T13:27:49;99403.31;;;19.48;42.52
46199;BME280;31928;52.104;10.030;2024-03-02T13:30:16;99391.25;;;19.54;41.11
46199;BME280;31928;52.104;10.030;2024-03-02T13:32:42;99398.47;;;19.63;41.74
46199;BME280;31928;52.104;10.030;2024-03-02T13:35:09;99388.00;;;19.70;42.44
46199;BME280;31928;52.104;10.030;2024-03-02T13:37:37;99391.75;;;19.74;41.38
46199;BME280;31928;52.104;10.030;2024-03-02T13:40:06;99393.81;;;19.82;41.88
46199;BME280;31928;52.104;10.030;2024-03-02T13:42:33;99393.44;;;19.88;41.52
46199;BME280;31928;52.104;10.030;2024-03-02T13:45:00;99386.53;;;19.96;42.11
46199;BME280;31928;52.104;10.030;2024-03-02T13:47:27;99386.47;;;20.01;40.77
46199;BME280;31928;52.104;10.030;2024-03-02T13:49:53;99381.97;;;20.10;42.14
46199;BME280;31928;52.104;10.030;2024-03-02T13:52:20;99388.13;;;20.15;40.24
46199;BME280;31928;52.104;10.030;2024-03-02T13:54:47;99386.03;;;20.26;41.64
46199;BME280;31928;52.104;10.030;2024-03-02T13:57:14;99377.28;;;20.29;38.69
46199;BME280;31928;52.104;10.030;2024-03-02T13:59:42;99380.63;;;20.39;40.93
46199;BME280;31928;52.104;10.030;2024-03-02T14:02:09;99381.31;;;20.45;40.49
46199;BME280;31928;52.104;10.030;2024-03-02T14:04:37;99380.94;;;20.51;40.14
46199;BME280;31928;52.104;10.030;2024-03-02T14:07:05;99375.09;;;20.57;40.20
46199;BME280;31928;52.104;10.030;2024-03-02T14:09:35;99373.91;;;20.63;40.77
46199;BME280;31928;52.104;10.030;2024-03-02T14:12:02;99375.41;;;20.69;41.21
46199;BME280;31928;52.104;10.030;2024-03-02T14:14:30;99370.72;;;20.75;40.95
46199;BME280;31928;52.104;10.030;2024-03-02T14:16:57;99368.69;;;20.80;40.59
46199;BME280;31928;52.104;10.030;2024-03-02T14:19:27;99363.41;;;20.84;38.91
46199;BME280;31928;52.104;10.030;2024-03-02T14:21:53;99372.31;;;20.89;39.84
46199;BME280;31928;52.104;10.030;2024-03-02T14:24:20;99358.88;;;20.93;40.88
46199;BME280;31928;52.104;10.030;2024-03-02T14:26:50;99366.75;;;20.94;40.02
46199;BME280;31928;52.104;10.030;2024-03-02T14:29:18;99382.81;;;20.96;40.30
46199;BME280;31928;52.104;10.030;2024-03-02T14:31:45;99365.34;;;20.97;40.19
46199;BME280;31928;52.104;10.030;2024-03-02T14:34:15;99368.06;;;20.97;38.57
46199;BME280;31928;52.104;10.030;2024-03-02T14:36:42;99363.41;;;20.97;40.14
46199;BME280;31928;52.104;10.030;2024-03-02T14:39:10;99358.59;;;20.94;38.89
46199;BME280;31928;52.104;10.030;2024-03-02T14:41:37;99365.63;;;20.95;39.91
46199;BME280;31928;52.104;10.030;2024-03-02T14:44:03;99358.88;;;20.93;39.86
46199;BME280;31928;52.104;10.030;2024-03-02T14:46:30;99364.63;;;20.91;40.07
46199;BME280;31928;52.104;10.030;2024-03-02T14:48:57;99363.03;;;20.90;40.29
46199;BME280;31928;52.104;10.030;2024-03-02T14:51:24;99373.94;;;20.90;40.22
46199;BME280;31928;52.104;10.030;2024-03-02T14:53:51;99365.25;;;20.88;37.33
46199;BME280;31928;52.104;10.030;2024-03-02T14:56:18;99365.25;;;20.88;39.23
46199;BME280;31928;52.104;10.030;2024-03-02T14:58:44;99364.72;;;20.86;39.33
46199;BME280;31928;52.104;10.030;2024-03-02T15:01:12;99364.03;;;20.81;37.94
46199;BME280;31928;52.104;10.030;2024-03-02T15:03:38;99360.00;;;20.78;39.95
46199;BME280;31928;52.104;10.030;2024-03-02T15:06:06;99356.84;;;20.71;38.54
46199;BME280;31928;52.104;10.030;2024-03-02T15:08:34;99358.03;;;20.65;39.11
46199;BME280;31928;52.104;10.030;2024-03-02T15:11:00;99363.41;;;20.57;38.82
46199;BME280;31928;52.104;10.030;2024-03-02T15:13:27;99360.56;;;20.49;39.37
46199;BME280;31928;52.104;10.030;2024-03-02T15:15:54;99354.72;;;20.42;39.35
46199;BME280;31928;52.104;10.030;2024-03-02T15:18:21;99347.22;;;20.34;39.19
46199;BME280;31928;52.104;10.030;2024-03-02T15:20:47;99349.00;;;20.25;38.87
46199;BME280;31928;52.104;10.030;2024-03-02T15:23:14;99355.16;;;20.17;39.10
46199;BME280;31928;52.104;10.030;2024-03-02T15:25:41;99350.41;;;20.09;39.64
46199;BME280;31928;52.104;10.030;2024-03-02T15:28:07;99343.22;;;19.99;39.04
46199;BME280;31928;52.104;10.030;2024-03-02T15:30:34;99355.28;;;19.93;39.67
46199;BME280;31928;52.104;10.030;2024-03-02T15:33:01;99353.53;;;19.84;39.44
46199;BME280;31928;52.104;10.030;2024-03-02T15:35:28;99349.25;;;19.78;39.69
46199;BME280;31928;52.104;10.030;2024-03-02T15:37:54;99340.97;;;19.70;39.27
46199;BME280;31928;52.104;10.030;2024-03-02T15:40:21;99347.59;;;19.64;39.33
46199;BME280;31928;52.104;10.030;2024-03-02T15:42:48;99351.78;;;19.56;39.52
46199;BME280;31928;52.104;10.030;2024-03-02T15:45:14;99352.97;;;19.50;39.42
46199;BME280;31928;52.104;10.030;2024-03-02T15:47:41;99346.50;;;19.46;39.69
46199;BME280;31928;52.104;10.030;2024-03-02T15:50:08;99353.13;;;19.40;39.52
46199;BME280;31928;52.104;10.030;2024-03-02T15:52:35;99351.28;;;19.36;40.26
46199;BME280;31928;52.104;10.030;2024-03-02T15:55:02;99339.06;;;19.33;40.30
46199;BME280;31928;52.104;10.030;2024-03-02T15:57:32;99350.25;;;19.32;39.82
46199;BME280;31928;52.104;10.030;2024-03-02T15:59:59;99333.66;;;19.33;40.29
46199;BME280;31928;52.104;10.030;2024-03-02T16:02:26;99336.38;;;19.33;39.44
46199;BME280;31928;52.104;10.030;2024-03-02T16:04:52;99330.34;;;19.36;39.59
46199;BME280;31928;52.104;10.030;2024-03-02T16:07:19;99339.25;;;19.42;40.08
46199;BME280;31928;52.104;10.030;2024-03-02T16:09:46;99332.72;;;19.43;39.14
46199;BME280;31928;52.104;10.030;2024-03-02T16:12:12;99337.53;;;19.46;39.54
46199;BME280;31928;52.104;10.030;2024-03-02T16:14:39;99329.38;;;19.46;39.47
46199;BME280;31928;52.104;10.030;2024-03-02T16:17:05;99333.44;;;19.48;39.68
46199;BME280;31928;52.104;10.030;2024-03-02T16:19:35;99333.19;;;19.45;38.53
46199;BME280;31928;52.104;10.030;2024-03-02T16:22:06;99331.81;;;19.47;39.75
46199;BME280;31928;52.104;10.030;2024-03-02T16:24:34;99327.47;;;19.46;38.81
46199;BME280;31928;52.104;10.030;2024-03-02T16:27:01;99324.47;;;19.48;39.42
46199;BME280;31928;52.104;10.030;2024-03-02T16:29:28;99318.75;;;19.49;40.06
46199;BME280;31928;52.104;10.030;2024-03-02T16:31:55;99317.13;;;19.48;39.95
46199;BME280;31928;52.104;10.030;2024-03-02T16:34:22;99318.75;;;19.49;39.72
46199;BME280;31928;52.104;10.030;2024-03-02T16:36:48;99317.13;;;19.48;39.96
46199;BME280;31928;52.104;10.030;2024-03-02T16:39:15;99318.22;;;19.47;40.31
46199;BME280;31928;52.104;10.030;2024-03-02T16:41:42;99315.28;;;19.44;39.96
46199;BME280;31928;52.104;10.030;2024-03-02T16:44:13;99322.13;;;19.41;40.04
46199;BME280;31928;52.104;10.030;2024-03-02T16:46:40;99324.63;;;19.38;40.01
46199;BME280;31928;52.104;10.030;2024-03-02T16:49:07;99330.94;;;19.33;40.03
46199;BME280;31928;52.104;10.030;2024-03-02T16:51:39;99327.78;;;19.27;40.19
46199;BME280;31928;52.104;10.030;2024-03-02T16:54:06;99331.66;;;19.21;40.02
46199;BME280;31928;52.104;10.030;2024-03-02T16:56:39;99326.28;;;19.16;39.93
46199;BME280;31928;52.104;10.030;2024-03-02T16:59:06;99327.78;;;19.08;40.40
46199;BME280;31928;52.104;10.030;2024-03-02T17:01:33;99330.53;;;19.03;40.51
46199;BME280;31928;52.104;10.030;2024-03-02T17:03:59;99337.91;;;18.98;40.46
46199;BME280;31928;52.104;10.030;2024-03-02T17:06:27;99332.03;;;18.91;40.57
46199;BME280;31928;52.104;10.030;2024-03-02T17:08:53;99331.59;;;18.84;40.53
46199;BME280;31928;52.104;10.030;2024-03-02T17:11:20;99335.47;;;18.78;40.37
46199;BME280;31928;52.104;10.030;2024-03-02T17:13:47;99337.75;;;18.71;40.64
46199;BME280;31928;52.104;10.030;2024-03-02T17:16:13;99336.47;;;18.64;40.89
46199;BME280;31928;52.104;10.030;2024-03-02T17:18:44;99336.00;;;18.57;40.60
46199;BME280;31928;52.104;10.030;2024-03-02T17:21:10;99344.47;;;18.50;40.91
46199;BME280;31928;52.104;10.030;2024-03-02T17:23:37;99341.31;;;18.43;41.05
46199;BME280;31928;52.104;10.030;2024-03-02T17:26:03;99350.09;;;18.35;40.72
46199;BME280;31928;52.104;10.030;2024-03-02T17:28:30;99348.00;;;18.27;41.10
46199;BME280;31928;52.104;10.030;2024-03-02T17:30:59;99340.47;;;18.19;41.05
46199;BME280;31928;52.104;10.030;2024-03-02T17:33:26;99340.78;;;18.13;40.96
46199;BME280;31928;52.104;10.030;2024-03-02T17:35:52;99350.38;;;18.06;41.33
46199;BME280;31928;52.104;10.030;2024-03-02T17:38:19;99359.09;;;17.98;41.19
46199;BME280;31928;52.104;10.030;2024-03-02T17:40:46;99361.63;;;17.89;41.55
46199;BME280;31928;52.104;10.030;2024-03-02T17:43:13;99360.34;;;17.82;41.63
46199;BME280;31928;52.104;10.030;2024-03-02T17:45:39;99359.84;;;17.75;41.49
46199;BME280;31928;52.104;10.030;2024-03-02T17:48:07;99363.16;;;17.67;41.56
46199;BME280;31928;52.104;10.030;2024-03-02T17:50:34;99364.59;;;17.59;41.64
46199;BME280;31928;52.104;10.030;2024-03-02T17:53:00;99371.41;;;17.52;41.52
46199;BME280;31928;52.104;10.030;2024-03-02T17:55:27;99375.50;;;17.45;41.86
46199;BME280;31928;52.104;10.030;2024-03-02T17:57:54;99372.03;;;17.39;41.57
46199;BME280;31928;52.104;10.030;2024-03-02T18:00:21;99369.94;;;17.31;41.62
46199;BME280;31928;52.104;10.030;2024-03-02T18:02:47;99369.66;;;17.23;41.69
46199;BME280;31928;52.104;10.030;2024-03-02T18:05:14;99374.31;;;17.17;41.98
46199;BME280;31928;52.104;10.030;2024-03-02T18:07:41;99378.41;;;17.10;42.09
46199;BME280;31928;52.104;10.030;2024-03-02T18:10:08;99377.06;;;17.02;41.77
46199;BME280;31928;52.104;10.030;2024-03-02T18:12:34;99382.28;;;16.94;41.95
46199;BME280;31928;52.104;10.030;2024-03-02T18:15:01;99379.03;;;16.87;42.12
46199;BME280;31928;52.104;10.030;2024-03-02T18:17:28;99377.72;;;16.80;42.11
46199;BME280;31928;52.104;10.030;2024-03-02T18:19:55;99378.00;;;16.73;42.25
46199;BME280;31928;52.104;10.030;2024-03-02T18:22:21;99374.25;;;16.64;42.01
46199;BME280;31928;52.104;10.030;2024-03-02T18:24:48;99380.78;;;16.58;42.40
46199;BME280;31928;52.104;10.030;2024-03-02T18:27:14;99382.94;;;16.51;42.46
46199;BME280;31928;52.104;10.030;2024-03-02T18:29:41;99371.88;;;16.43;42.39
46199;BME280;31928;52.104;10.030;2024-03-02T18:32:08;99372.47;;;16.35;42.30
46199;BME280;31928;52.104;10.030;2024-03-02T18:34:34;99374.63;;;16.28;42.17
46199;BME280;31928;52.104;10.030;2024-03-02T18:37:06;99369.75;;;16.20;42.46
46199;BME280;31928;52.104;10.030;2024-03-02T18:39:32;99382.72;;;16.13;42.54
46199;BME280;31928;52.104;10.030;2024-03-02T18:41:59;99378.41;;;16.07;42.66
46199;BME280;31928;52.104;10.030;2024-03-02T18:44:26;99377.84;;;16.00;42.59
46199;BME280;31928;52.104;10.030;2024-03-02T18:46:52;99377.31;;;15.93;42.57
46199;BME280;31928;52.104;10.030;2024-03-02T18:49:19;99377.31;;;15.88;42.65
46199;BME280;31928;52.104;10.030;2024-03-02T18:51:46;99379.22;;;15.83;42.93
46199;BME280;31928;52.104;10.030;2024-03-02T18:54:12;99373.03;;;15.77;42.63
46199;BME280;31928;52.104;10.030;2024-03-02T18:56:39;99384.91;;;15.71;42.73
46199;BME280;31928;52.104;10.030;2024-03-02T18:59:06;99381.38;;;15.66;43.06
46199;BME280;31928;52.104;10.030;2024-03-02T19:01:32;99375.69;;;15.63;42.69
46199;BME280;31928;52.104;10.030;2024-03-02T19:03:59;99374.91;;;15.57;42.83
46199;BME280;31928;52.104;10.030;2024-03-02T19:06:26;99380.56;;;15.51;42.98
46199;BME280;31928;52.104;10.030;2024-03-02T19:08:52;99375.16;;;15.46;43.06
46199;BME280;31928;52.104;10.030;2024-03-02T19:11:19;99377.84;;;15.41;43.12
46199;BME280;31928;52.104;10.030;2024-03-02T19:13:46;99380.53;;;15.36;43.18
46199;BME280;31928;52.104;10.030;2024-03-02T19:16:14;99383.22;;;15.31;43.12
46199;BME280;31928;52.104;10.030;2024-03-02T19:18:41;99382.13;;;15.27;42.91
46199;BME280;31928;52.104;10.030;2024-03-02T19:21:08;99377.81;;;15.21;43.03
46199;BME280;31928;52.104;10.030;2024-03-02T19:23:35;99382.06;;;15.17;42.89
46199;BME280;31928;52.104;10.030;2024-03-02T19:26:10;99384.78;;;15.12;43.11
46199;BME280;31928;52.104;10.030;2024-03-02T19:28:42;99387.44;;;15.07;43.34
46199;BME280;31928;52.104;10.030;2024-03-02T19:31:09;99383.09;;;15.01;43.34
46199;BME280;31928;52.104;10.030;2024-03-02T19:33:35;99376.88;;;14.96;43.32
46199;BME280;31928;52.104;10.030;2024-03-02T19:36:02;99385.75;;;14.91;43.45
46199;BME280;31928;52.104;10.030;2024-03-02T19:38:29;99380.34;;;14.86;43.50
46199;BME280;31928;52.104;10.030;2024-03-02T19:40:56;99379.25;;;14.82;43.18
46199;BME280;31928;52.104;10.030;2024-03-02T19:43:23;99383.53;;;14.78;43.59
46199;BME280;31928;52.104;10.030;2024-03-02T19:45:50;99377.06;;;14.74;43.53
46199;BME280;31928;52.104;10.030;2024-03-02T19:48:16;99381.34;;;14.70;43.66
46199;BME280;31928;52.104;10.030;2024-03-02T19:50:43;99374.88;;;14.66;43.64
46199;BME280;31928;52.104;10.030;2024-03-02T19:53:10;99373.78;;;14.62;43.75
46199;BME280;31928;52.104;10.030;2024-03-02T19:55:37;99368.06;;;14.59;43.66
46199;BME280;31928;52.104;10.030;2024-03-02T19:58:04;99366.97;;;14.55;43.57
46199;BME280;31928;52.104;10.030;2024-03-02T20:00:31;99362.13;;;14.52;43.91
46199;BME280;31928;52.104;10.030;2024-03-02T20:02:58;99364.00;;;14.46;43.56
46199;BME280;31928;52.104;10.030;2024-03-02T20:05:24;99367.75;;;14.45;43.77
46199;BME280;31928;52.104;10.030;2024-03-02T20:07:52;99360.44;;;14.41;43.94
46199;BME280;31928;52.104;10.030;2024-03-02T20:10:18;99358.53;;;14.37;43.65
46199;BME280;31928;52.104;10.030;2024-03-02T20:12:46;99357.44;;;14.33;43.97
46199;BME280;31928;52.104;10.030;2024-03-02T20:15:13;99359.84;;;14.29;44.14
46199;BME280;31928;52.104;10.030;2024-03-02T20:17:39;99362.22;;;14.26;43.80
46199;BME280;31928;52.104;10.030;2024-03-02T20:20:06;99355.75;;;14.22;44.13
46199;BME280;31928;52.104;10.030;2024-03-02T20:22:35;99347.38;;;14.18;44.05
46199;BME280;31928;52.104;10.030;2024-03-02T20:25:02;99350.56;;;14.15;44.14
46199;BME280;31928;52.104;10.030;2024-03-02T20:27:29;99351.91;;;14.13;44.25
46199;BME280;31928;52.104;10.030;2024-03-02T20:29:56;99352.44;;;14.10;44.23
46199;BME280;31928;52.104;10.030;2024-03-02T20:32:23;99347.53;;;14.07;44.05
46199;BME280;31928;52.104;10.030;2024-03-02T20:34:50;99348.03;;;14.04;44.47
46199;BME280;31928;52.104;10.030;2024-03-02T20:37:17;99342.63;;;13.99;44.19
46199;BME280;31928;52.104;10.030;2024-03-02T20:39:50;99340.44;;;13.96;44.38
46199;BME280;31928;52.104;10.030;2024-03-02T20:42:19;99336.66;;;13.92;44.54
46199;BME280;31928;52.104;10.030;2024-03-02T20:44:45;99339.88;;;13.89;44.29
46199;BME280;31928;52.104;10.030;2024-03-02T20:47:12;99345.75;;;13.86;44.42
46199;BME280;31928;52.104;10.030;2024-03-02T20:49:39;99339.25;;;13.82;44.72
46199;BME280;31928;52.104;10.030;2024-03-02T20:52:09;99337.38;;;13.78;44.76
46199;BME280;31928;52.104;10.030;2024-03-02T20:54:36;99347.81;;;13.74;44.51
46199;BME280;31928;52.104;10.030;2024-03-02T20:57:03;99344.03;;;13.70;44.55